Time;durP1;ratioP1;P1;durP2;ratioP2;P2;SDS_P1;SDS_P2;PMS_P1;PMS_P2;Temp;Humidity;BMP_temperature;BMP_pressure;BME280_temperature;BME280_humidity;BME280_pressure;Samples;Min_cycle;Max_cycle;Signal;HPM_P1;HPM_P2
2023/03/21 00:01:30;;;;;;;9.23;6.83;;;11.00;99.90;;;;;;4145811;28;20030;-67
2023/03/21 00:03:33;;;;;;;12.97;7.80;;;11.00;99.90;;;;;;4144804;28;20038;-62
2023/03/21 00:05:38;;;;;;;14.80;9.00;;;11.00;99.90;;;;;;4144597;28;20096;-65
2023/03/21 00:07:39;;;;;;;19.67;8.70;;;11.00;99.90;;;;;;4144444;28;20072;-63
2023/03/21 00:09:40;;;;;;;21.27;9.20;;;11.00;99.90;;;;;;4148294;28;20033;-70
2023/03/21 00:11:41;;;;;;;17.40;7.47;;;10.90;99.90;;;;;;4156401;28;20029;-68
2023/03/21 00:13:43;;;;;;;15.80;7.73;;;10.90;99.90;;;;;;4144602;28;20088;-64
2023/03/21 00:15:50;;;;;;;17.00;8.40;;;10.90;99.90;;;;;;4152510;28;20490;-63
2023/03/21 00:17:57;;;;;;;13.30;7.57;;;10.90;99.90;;;;;;4147800;28;20076;-63
2023/03/21 00:19:59;;;;;;;11.13;7.00;;;10.90;99.90;;;;;;4156922;28;20041;-66
2023/03/21 00:22:01;;;;;;;11.33;6.40;;;10.80;99.90;;;;;;4148917;28;20050;-63
2023/03/21 00:24:02;;;;;;;12.03;6.37;;;10.80;99.90;;;;;;4145869;28;20459;-66
2023/03/21 00:26:03;;;;;;;12.53;7.07;;;10.80;99.90;;;;;;4144517;28;20033;-67
2023/03/21 00:28:04;;;;;;;9.67;5.83;;;10.80;99.90;;;;;;4149292;28;20057;-63
2023/03/21 00:30:06;;;;;;;10.67;5.73;;;10.80;99.90;;;;;;4145080;28;20026;-63
2023/03/21 00:32:08;;;;;;;10.07;5.77;;;10.80;99.90;;;;;;4145979;28;20088;-65
2023/03/21 00:34:09;;;;;;;8.27;5.57;;;10.80;99.90;;;;;;4144504;28;20088;-65
2023/03/21 00:36:11;;;;;;;9.13;6.17;;;10.80;99.90;;;;;;4147598;28;20088;-64
2023/03/21 00:38:14;;;;;;;9.87;5.80;;;10.70;99.90;;;;;;4148661;28;20387;-64
2023/03/21 00:40:16;;;;;;;9.93;6.50;;;10.70;99.90;;;;;;4149193;28;20034;-64
2023/03/21 00:42:17;;;;;;;13.33;7.00;;;10.70;99.90;;;;;;4156438;28;20025;-64
2023/03/21 00:44:20;;;;;;;12.83;7.77;;;10.70;99.90;;;;;;4164126;28;20481;-64
2023/03/21 00:46:21;;;;;;;12.00;7.60;;;10.60;99.90;;;;;;4136762;28;20076;-63
2023/03/21 00:48:22;;;;;;;11.87;6.77;;;10.60;99.90;;;;;;4147862;28;20038;-64
2023/03/21 00:50:24;;;;;;;9.77;7.20;;;10.60;99.90;;;;;;4148534;28;20025;-64
2023/03/21 00:52:25;;;;;;;11.50;7.43;;;10.50;99.90;;;;;;4147793;28;20092;-64
2023/03/21 00:54:27;;;;;;;15.43;8.80;;;10.60;99.90;;;;;;4148911;28;20441;-64
2023/03/21 00:56:28;;;;;;;13.23;7.83;;;10.50;99.90;;;;;;4147666;28;20433;-65
2023/03/21 00:58:29;;;;;;;14.73;7.93;;;10.50;99.90;;;;;;4149661;28;20076;-66
2023/03/21 01:00:31;;;;;;;16.40;8.23;;;10.50;99.90;;;;;;4147948;28;20080;-64
2023/03/21 01:02:33;;;;;;;12.03;7.53;;;10.50;99.90;;;;;;4148809;28;20474;-64
2023/03/21 01:04:34;;;;;;;13.70;7.50;;;10.50;99.90;;;;;;4150976;28;20053;-64
2023/03/21 01:06:39;;;;;;;12.33;7.17;;;10.50;99.90;;;;;;4147923;28;20100;-65
2023/03/21 01:08:42;;;;;;;12.83;7.23;;;10.50;99.90;;;;;;4147479;28;20449;-64
2023/03/21 01:10:47;;;;;;;12.90;7.37;;;10.40;99.90;;;;;;4153658;28;20393;-65
2023/03/21 01:12:48;;;;;;;11.97;7.27;;;10.40;99.90;;;;;;4159969;28;20037;-65
2023/03/21 01:14:49;;;;;;;12.43;7.43;;;10.40;99.90;;;;;;4159317;28;20371;-64
2023/03/21 01:16:52;;;;;;;12.97;7.80;;;10.40;99.90;;;;;;4147233;28;20104;-64
2023/03/21 01:18:55;;;;;;;11.80;6.57;;;10.40;99.90;;;;;;4161229;28;20037;-63
2023/03/21 01:20:58;;;;;;;12.07;6.23;;;10.40;99.90;;;;;;4163963;28;20405;-65
2023/03/21 01:23:02;;;;;;;11.50;6.57;;;10.40;99.90;;;;;;4163846;28;20014;-67
2023/03/21 01:25:04;;;;;;;10.20;6.67;;;10.40;99.90;;;;;;4163623;28;20029;-64
2023/03/21 01:27:05;;;;;;;15.27;7.20;;;10.40;99.90;;;;;;4163384;28;20091;-64
2023/03/21 01:29:06;;;;;;;8.63;6.13;;;10.40;99.90;;;;;;4152820;28;20057;-64
2023/03/21 01:31:10;;;;;;;11.57;6.60;;;10.40;99.90;;;;;;4153188;28;20029;-67
2023/03/21 01:33:12;;;;;;;12.83;6.47;;;10.40;99.90;;;;;;4162954;28;20068;-64
2023/03/21 01:35:13;;;;;;;11.20;7.03;;;10.40;99.90;;;;;;4162876;28;20026;-64
2023/03/21 01:37:16;;;;;;;11.67;6.50;;;10.40;99.90;;;;;;4164317;28;20103;-63
2023/03/21 01:39:17;;;;;;;10.17;5.90;;;10.40;99.90;;;;;;4161282;28;20022;-66
2023/03/21 01:41:29;;;;;;;9.90;6.27;;;10.40;99.90;;;;;;4149295;28;20072;-67
2023/03/21 01:43:34;;;;;;;9.37;6.27;;;10.40;99.90;;;;;;4153153;28;20481;-66
2023/03/21 01:46:09;;;;;;;10.57;6.23;;;10.30;99.90;;;;;;4147351;28;20046;-68
2023/03/21 01:48:10;;;;;;;13.70;8.50;;;10.30;99.90;;;;;;4160392;28;20084;-65
2023/03/21 01:50:11;;;;;;;16.77;8.90;;;10.30;99.90;;;;;;4148534;28;20092;-64
2023/03/21 01:52:18;;;;;;;17.60;9.67;;;10.30;99.90;;;;;;4146086;28;20469;-64
2023/03/21 01:54:31;;;;;;;15.20;8.90;;;10.20;99.90;;;;;;4157963;28;20099;-64
2023/03/21 01:56:36;;;;;;;19.43;10.37;;;10.20;99.90;;;;;;4162392;28;20041;-64
2023/03/21 01:58:40;;;;;;;17.17;10.13;;;10.20;99.90;;;;;;4163339;28;20095;-65
2023/03/21 02:00:42;;;;;;;17.30;10.70;;;10.20;99.90;;;;;;4161419;28;20107;-64
2023/03/21 02:02:54;;;;;;;23.40;11.40;;;10.10;99.90;;;;;;4154052;28;20045;-62
2023/03/21 02:04:56;;;;;;;21.00;11.17;;;10.10;99.90;;;;;;4161132;28;20549;-66
2023/03/21 02:07:06;;;;;;;16.03;10.37;;;10.10;99.90;;;;;;4161724;28;20144;-63
2023/03/21 02:09:12;;;;;;;18.87;10.50;;;10.00;99.90;;;;;;4162586;28;20030;-63
2023/03/21 02:11:15;;;;;;;16.00;10.77;;;10.00;99.90;;;;;;4160666;28;20120;-63
2023/03/21 02:13:17;;;;;;;18.47;10.57;;;10.00;99.90;;;;;;4149425;28;20018;-62
2023/03/21 02:15:18;;;;;;;18.20;10.43;;;9.90;99.90;;;;;;4161178;28;20033;-64
2023/03/21 02:17:43;;;;;;;18.77;10.40;;;10.00;99.90;;;;;;4162278;28;20087;-63
2023/03/21 02:20:07;;;;;;;16.37;10.20;;;9.90;99.90;;;;;;4161977;28;20045;-63
2023/03/21 02:22:46;;;;;;;17.93;10.17;;;9.90;99.90;;;;;;4159242;28;20022;-64
2023/03/21 02:25:17;;;;;;;18.30;10.13;;;9.80;99.90;;;;;;4147229;28;20052;-64
2023/03/21 02:27:24;;;;;;;17.57;9.57;;;9.80;99.90;;;;;;4146039;28;20076;-63
2023/03/21 02:29:37;;;;;;;22.00;10.77;;;9.80;99.90;;;;;;4148114;28;20041;-65
2023/03/21 02:31:44;;;;;;;17.27;9.87;;;9.80;99.90;;;;;;4157232;28;20038;-64
2023/03/21 02:34:14;;;;;;;17.03;10.03;;;9.70;99.90;;;;;;4147066;28;20042;-64
2023/03/21 02:36:50;;;;;;;14.32;8.35;;;9.70;99.90;;;;;;4078984;29;20047;-65
2023/03/21 02:38:58;;;;;;;14.43;8.40;;;9.80;99.90;;;;;;4144531;28;20094;-63
2023/03/21 02:41:12;;;;;;;17.00;8.90;;;9.70;99.90;;;;;;4160852;28;20056;-64
2023/03/21 02:43:13;;;;;;;14.27;8.23;;;9.70;99.90;;;;;;4162735;28;20042;-62
2023/03/21 02:45:19;;;;;;;12.73;8.17;;;9.60;99.90;;;;;;4151793;28;20026;-65
2023/03/21 02:47:51;;;;;;;13.00;7.77;;;9.60;99.90;;;;;;4157706;28;20029;-63
2023/03/21 02:50:01;;;;;;;20.20;9.03;;;9.60;99.90;;;;;;4146110;28;20107;-68
2023/03/21 02:52:03;;;;;;;15.97;8.47;;;9.60;99.90;;;;;;4145933;28;20034;-64
2023/03/21 02:54:10;;;;;;;14.83;8.93;;;9.60;99.90;;;;;;4146009;28;20736;-63
2023/03/21 02:56:12;;;;;;;17.20;8.27;;;9.60;99.90;;;;;;4145956;28;20099;-63
2023/03/21 02:58:17;;;;;;;14.23;8.77;;;9.60;99.90;;;;;;4145270;28;20543;-63
2023/03/21 03:00:23;;;;;;;14.53;8.53;;;9.60;99.90;;;;;;4154571;28;20083;-63
2023/03/21 03:02:27;;;;;;;14.70;8.50;;;9.60;99.90;;;;;;4146760;28;20092;-63
2023/03/21 03:04:29;;;;;;;12.60;7.33;;;9.60;99.90;;;;;;4146342;28;20029;-64
2023/03/21 03:06:48;;;;;;;10.73;7.07;;;9.60;99.90;;;;;;4150667;28;20386;-64
2023/03/21 03:09:04;;;;;;;10.97;7.10;;;9.60;99.90;;;;;;4162167;28;20099;-63
2023/03/21 03:11:29;;;;;;;11.13;6.93;;;9.60;99.90;;;;;;4161667;28;20547;-63
2023/03/21 03:13:45;;;;;;;13.20;7.23;;;9.60;99.90;;;;;;4138069;28;20123;-66
2023/03/21 03:16:10;;;;;;;9.83;6.10;;;9.70;99.90;;;;;;4152543;28;20438;-67
2023/03/21 03:18:26;;;;;;;8.87;6.00;;;9.70;99.90;;;;;;4153342;28;20041;-64
2023/03/21 03:20:50;;;;;;;11.00;6.90;;;9.60;99.90;;;;;;4161086;28;20060;-65
2023/03/21 03:22:54;;;;;;;12.07;6.70;;;9.70;99.90;;;;;;4161451;28;20033;-64
2023/03/21 03:25:06;;;;;;;10.50;6.13;;;9.60;99.90;;;;;;4161623;28;20049;-64
2023/03/21 03:27:16;;;;;;;7.90;6.37;;;9.60;99.90;;;;;;4161393;28;20033;-63
2023/03/21 03:29:19;;;;;;;11.98;6.82;;;9.70;99.90;;;;;;4135465;28;20108;-63
2023/03/21 03:31:30;;;;;;;10.77;6.03;;;9.60;99.90;;;;;;4151623;28;20037;-66
2023/03/21 03:33:33;;;;;;;10.70;6.73;;;9.60;99.90;;;;;;4150073;28;20034;-63
2023/03/21 03:35:34;;;;;;;12.83;6.80;;;9.70;99.90;;;;;;4144924;28;20091;-64
2023/03/21 03:37:38;;;;;;;13.23;6.47;;;9.60;99.90;;;;;;4145659;28;20151;-65
2023/03/21 03:40:09;;;;;;;15.33;6.93;;;9.70;99.90;;;;;;4146113;28;20042;-66
2023/03/21 03:42:28;;;;;;;9.93;6.40;;;9.60;99.90;;;;;;4155890;28;20041;-63
2023/03/21 03:44:29;;;;;;;12.33;6.13;;;9.60;99.90;;;;;;4160855;28;20440;-64
2023/03/21 03:46:35;;;;;;;9.50;6.13;;;9.60;99.90;;;;;;4155038;28;20033;-64
2023/03/21 03:48:54;;;;;;;9.37;5.90;;;9.60;99.90;;;;;;4152351;28;20122;-63
2023/03/21 03:51:20;;;;;;;9.03;5.50;;;9.60;99.90;;;;;;4146386;28;20037;-63
2023/03/21 03:53:27;;;;;;;11.73;4.83;;;9.70;99.90;;;;;;4148104;28;20436;-63
2023/03/21 03:55:33;;;;;;;9.60;5.87;;;9.70;99.90;;;;;;4160914;28;20465;-63
2023/03/21 03:57:35;;;;;;;10.13;5.70;;;9.70;99.90;;;;;;4144532;28;20030;-64
2023/03/21 03:59:37;;;;;;;9.47;5.53;;;9.70;99.90;;;;;;4146688;28;20095;-64
2023/03/21 04:01:38;;;;;;;9.73;5.40;;;9.70;99.90;;;;;;4160533;28;20030;-67
2023/03/21 04:03:42;;;;;;;8.07;5.43;;;9.70;99.90;;;;;;4151973;28;20421;-64
2023/03/21 04:05:45;;;;;;;11.67;5.67;;;9.70;99.90;;;;;;4144752;28;20084;-66
2023/03/21 04:07:49;;;;;;;10.10;5.40;;;9.70;99.90;;;;;;4145363;28;20054;-67
2023/03/21 04:09:50;;;;;;;9.73;5.83;;;9.70;99.90;;;;;;4144904;28;20100;-64
2023/03/21 04:11:52;;;;;;;10.07;5.20;;;9.70;99.90;;;;;;4144576;28;20559;-64
2023/03/21 04:13:54;;;;;;;12.00;6.30;;;9.70;99.90;;;;;;4145403;28;20481;-64
2023/03/21 04:15:56;;;;;;;8.90;6.10;;;9.70;99.90;;;;;;4144236;28;20076;-64
2023/03/21 04:17:57;;;;;;;9.80;5.93;;;9.70;99.90;;;;;;4145105;28;20042;-66
2023/03/21 04:19:58;;;;;;;15.43;6.73;;;9.80;99.90;;;;;;4144657;28;20057;-66
2023/03/21 04:21:59;;;;;;;17.63;6.87;;;9.80;99.90;;;;;;4145390;28;20441;-65
2023/03/21 04:24:00;;;;;;;12.67;6.83;;;9.80;99.90;;;;;;4145062;28;20034;-66
2023/03/21 04:26:02;;;;;;;14.23;6.37;;;9.80;99.90;;;;;;4161072;28;20041;-64
2023/03/21 04:28:04;;;;;;;8.87;5.10;;;9.80;99.90;;;;;;4159855;28;20060;-66
2023/03/21 04:30:06;;;;;;;10.37;5.70;;;9.70;99.90;;;;;;4145182;28;20103;-64
2023/03/21 04:32:15;;;;;;;10.87;4.80;;;9.60;99.90;;;;;;4153131;28;20034;-64
2023/03/21 04:34:16;;;;;;;8.67;5.20;;;9.60;99.90;;;;;;4149529;28;20033;-64
2023/03/21 04:36:26;;;;;;;9.50;5.77;;;9.60;99.90;;;;;;4151277;28;20034;-65
2023/03/21 04:38:29;;;;;;;10.73;5.50;;;9.60;99.90;;;;;;4145810;28;20029;-64
2023/03/21 04:40:31;;;;;;;7.10;5.13;;;9.60;99.90;;;;;;4156628;28;20034;-64
2023/03/21 04:42:33;;;;;;;17.50;5.80;;;9.60;99.90;;;;;;4149463;28;20079;-65
2023/03/21 04:44:35;;;;;;;13.50;6.27;;;9.60;99.90;;;;;;4145167;28;20072;-64
2023/03/21 04:46:37;;;;;;;12.10;5.80;;;9.60;99.90;;;;;;4154432;28;20386;-66
2023/03/21 04:48:38;;;;;;;9.70;5.73;;;9.60;99.90;;;;;;4152883;28;20363;-64
2023/03/21 04:50:39;;;;;;;10.73;5.23;;;9.60;99.90;;;;;;4149107;28;20133;-63
2023/03/21 04:52:40;;;;;;;13.40;6.97;;;9.60;99.90;;;;;;4150478;28;20050;-63
2023/03/21 04:54:42;;;;;;;9.80;6.10;;;9.70;99.90;;;;;;4150054;28;20155;-64
2023/03/21 04:56:44;;;;;;;11.77;6.13;;;9.70;99.90;;;;;;4145596;28;20054;-66
2023/03/21 04:58:45;;;;;;;9.33;5.03;;;9.70;99.90;;;;;;4145423;28;20042;-64
2023/03/21 05:00:47;;;;;;;14.90;6.43;;;9.70;99.90;;;;;;4149324;28;20034;-66
2023/03/21 05:02:48;;;;;;;11.70;5.43;;;9.80;99.90;;;;;;4156625;28;21485;-67
2023/03/21 05:04:49;;;;;;;13.77;5.73;;;9.80;99.90;;;;;;4146074;28;20041;-64
2023/03/21 05:06:50;;;;;;;10.90;5.70;;;9.80;99.90;;;;;;4150596;28;20045;-63
2023/03/21 05:08:52;;;;;;;14.03;6.43;;;9.80;99.90;;;;;;4155320;28;20092;-64
2023/03/21 05:10:53;;;;;;;16.00;6.00;;;9.90;99.90;;;;;;4153795;28;20037;-66
2023/03/21 05:12:54;;;;;;;9.40;5.87;;;9.90;99.90;;;;;;4141102;28;20050;-64
2023/03/21 05:14:55;;;;;;;24.30;10.37;;;9.90;99.90;;;;;;4146327;28;20462;-63
2023/03/21 05:16:56;;;;;;;15.47;8.57;;;9.90;99.90;;;;;;4148394;28;20034;-63
2023/03/21 05:19:02;;;;;;;21.17;9.33;;;9.90;99.90;;;;;;4156492;28;20046;-63
2023/03/21 05:21:06;;;;;;;20.73;9.27;;;9.90;99.90;;;;;;4155985;28;20076;-63
2023/03/21 05:23:11;;;;;;;18.20;8.17;;;9.90;99.90;;;;;;4154402;28;20041;-64
2023/03/21 05:25:12;;;;;;;16.83;8.70;;;9.90;99.90;;;;;;4157541;28;20088;-67
2023/03/21 05:27:33;;;;;;;23.03;8.37;;;9.90;99.90;;;;;;4156678;28;20575;-62
2023/03/21 05:29:34;;;;;;;;;;;9.90;99.90;;;;;;4163459;28;20526;-64
2023/03/21 05:31:36;;;;;;;17.50;7.87;;;9.90;99.90;;;;;;4157891;28;19909;-63
2023/03/21 05:33:37;;;;;;;14.00;6.33;;;9.90;99.90;;;;;;4147630;28;20033;-66
2023/03/21 05:35:38;;;;;;;11.43;6.20;;;9.90;99.90;;;;;;4156231;28;20052;-65
2023/03/21 05:37:39;;;;;;;14.30;5.87;;;9.90;99.90;;;;;;4152435;28;20042;-63
2023/03/21 05:39:40;;;;;;;15.33;6.27;;;9.90;99.90;;;;;;4148223;28;20112;-63
2023/03/21 05:41:42;;;;;;;13.17;5.37;;;10.00;99.90;;;;;;4145611;28;20057;-62
2023/03/21 05:43:43;;;;;;;14.57;6.10;;;10.00;99.90;;;;;;4147301;28;20088;-63
2023/03/21 05:45:47;;;;;;;12.30;5.30;;;10.00;99.90;;;;;;4145938;28;20037;-65
2023/03/21 05:47:48;;;;;;;10.63;5.97;;;10.10;99.90;;;;;;4144612;28;20042;-63
2023/03/21 05:49:49;;;;;;;12.07;5.60;;;10.10;99.90;;;;;;4144959;28;20088;-62
2023/03/21 05:51:51;;;;;;;17.97;6.63;;;10.10;99.90;;;;;;4146376;28;20038;-63
2023/03/21 05:53:52;;;;;;;13.60;6.07;;;10.20;99.90;;;;;;4147003;28;20030;-63
2023/03/21 05:55:54;;;;;;;10.03;5.70;;;10.20;99.90;;;;;;4146094;28;20541;-63
2023/03/21 05:57:55;;;;;;;9.47;5.57;;;10.30;99.90;;;;;;4146959;28;20038;-62
2023/03/21 05:59:56;;;;;;;15.07;6.93;;;10.30;99.90;;;;;;4145793;28;20999;-63
2023/03/21 06:01:57;;;;;;;14.33;6.90;;;10.30;99.90;;;;;;4145738;28;20053;-63
2023/03/21 06:03:58;;;;;;;17.93;7.90;;;10.30;99.90;;;;;;4146200;28;20029;-63
2023/03/21 06:06:02;;;;;;;24.63;8.83;;;10.30;99.90;;;;;;4146299;28;20042;-66
2023/03/21 06:08:03;;;;;;;28.07;9.90;;;10.30;99.90;;;;;;4146124;28;20049;-63
2023/03/21 06:10:05;;;;;;;23.43;10.50;;;10.30;99.90;;;;;;4146636;28;20481;-63
2023/03/21 06:12:06;;;;;;;29.63;11.80;;;10.20;99.90;;;;;;4145963;28;20477;-63
2023/03/21 06:14:07;;;;;;;34.90;12.27;;;10.20;99.90;;;;;;4145692;28;20474;-63
2023/03/21 06:16:09;;;;;;;30.30;11.73;;;10.10;99.90;;;;;;4146249;28;20034;-63
2023/03/21 06:18:10;;;;;;;35.60;12.43;;;10.10;99.90;;;;;;4145622;28;20026;-63
2023/03/21 06:20:12;;;;;;;30.17;11.93;;;10.10;99.90;;;;;;4146638;28;20524;-63
2023/03/21 06:22:14;;;;;;;29.43;12.77;;;10.00;99.90;;;;;;4144298;28;20065;-63
2023/03/21 06:24:16;;;;;;;42.20;12.67;;;10.00;99.90;;;;;;4146637;28;20049;-67
2023/03/21 06:26:21;;;;;;;27.90;11.57;;;10.00;99.90;;;;;;4145681;28;20482;-62
2023/03/21 06:28:22;;;;;;;35.47;12.50;;;10.10;99.90;;;;;;4146222;28;20092;-63
2023/03/21 06:30:24;;;;;;;32.87;12.80;;;10.10;99.90;;;;;;4145483;28;20053;-63
2023/03/21 06:32:25;;;;;;;28.80;12.80;;;10.20;99.90;;;;;;4145999;28;20108;-68
2023/03/21 06:34:26;;;;;;;30.50;12.47;;;10.30;99.90;;;;;;4145838;28;20463;-62
2023/03/21 06:36:27;;;;;;;38.60;12.93;;;10.30;99.90;;;;;;4144293;28;20022;-62
2023/03/21 06:38:30;;;;;;;35.63;14.43;;;10.40;99.90;;;;;;4146589;28;20065;-65
2023/03/21 06:40:31;;;;;;;37.80;15.10;;;10.40;99.90;;;;;;4145415;28;20084;-62
2023/03/21 06:42:33;;;;;;;36.27;14.80;;;10.40;99.90;;;;;;4145418;28;20096;-61
2023/03/21 06:44:34;;;;;;;36.00;15.30;;;10.40;99.90;;;;;;4145345;28;20540;-62
2023/03/21 06:46:35;;;;;;;35.23;15.07;;;10.40;99.90;;;;;;4146303;28;20018;-65
2023/03/21 06:48:38;;;;;;;26.03;13.47;;;10.50;99.90;;;;;;4145480;28;20173;-65
2023/03/21 06:50:39;;;;;;;28.10;13.53;;;10.70;99.90;;;;;;4146558;28;20050;-62
2023/03/21 06:52:40;;;;;;;42.10;15.57;;;10.70;99.90;;;;;;4145501;28;20034;-62
2023/03/21 06:54:41;;;;;;;55.47;25.43;;;10.70;99.90;;;;;;4146129;28;20466;-64
2023/03/21 06:56:43;;;;;;;38.57;18.87;;;10.80;99.90;;;;;;4145274;28;20041;-62
2023/03/21 06:58:45;;;;;;;37.37;16.43;;;10.80;99.90;;;;;;4145777;28;20105;-62
2023/03/21 07:00:46;;;;;;;29.33;14.53;;;10.80;99.90;;;;;;4145472;28;20010;-62
2023/03/21 07:02:48;;;;;;;34.53;15.53;;;10.90;99.90;;;;;;4145528;28;20068;-63
2023/03/21 07:04:49;;;;;;;35.27;14.50;;;11.00;99.90;;;;;;4145419;28;20038;-62
2023/03/21 07:06:50;;;;;;;34.83;15.13;;;11.20;99.90;;;;;;4144779;28;20054;-62
2023/03/21 07:08:54;;;;;;;26.70;12.73;;;11.20;99.90;;;;;;4146275;28;20112;-62
2023/03/21 07:10:56;;;;;;;29.37;12.60;;;11.40;99.90;;;;;;4143620;28;20049;-65
2023/03/21 07:12:59;;;;;;;31.03;13.80;;;11.50;99.90;;;;;;4146304;28;20704;-63
2023/03/21 07:15:00;;;;;;;31.73;13.53;;;11.60;99.90;;;;;;4144835;28;20042;-65
2023/03/21 07:17:02;;;;;;;30.23;13.47;;;11.70;99.90;;;;;;4146128;28;20092;-66
2023/03/21 07:19:03;;;;;;;31.33;13.17;;;11.80;99.90;;;;;;4145061;28;20033;-62
2023/03/21 07:21:04;;;;;;;25.67;12.87;;;12.00;99.90;;;;;;4145929;28;20034;-64
2023/03/21 07:23:06;;;;;;;24.77;11.50;;;12.20;99.90;;;;;;4143273;28;20437;-64
2023/03/21 07:25:08;;;;;;;23.43;10.53;;;12.50;99.90;;;;;;4145610;28;20088;-62
2023/03/21 07:27:09;;;;;;;21.03;9.10;;;12.90;99.90;;;;;;4144972;28;20030;-66
2023/03/21 07:29:10;;;;;;;19.80;7.43;;;13.30;99.90;;;;;;4144754;28;20421;-69
2023/03/21 07:31:15;;;;;;;25.30;7.60;;;13.90;99.90;;;;;;4145820;28;20050;-70
2023/03/21 07:33:17;;;;;;;16.47;6.87;;;14.30;99.90;;;;;;4144903;28;20033;-63
2023/03/21 07:35:18;;;;;;;13.57;6.43;;;14.80;99.90;;;;;;4145732;28;20041;-62
2023/03/21 07:37:19;;;;;;;14.03;7.03;;;15.10;99.90;;;;;;4144710;28;20107;-64
2023/03/21 07:39:22;;;;;;;12.73;6.13;;;15.50;99.90;;;;;;4145473;28;20061;-66
2023/03/21 07:41:23;;;;;;;11.90;7.10;;;15.80;99.90;;;;;;4144186;28;20026;-63
2023/03/21 07:43:24;;;;;;;11.93;6.20;;;16.00;99.90;;;;;;4145765;28;20050;-63
2023/03/21 07:45:26;;;;;;;17.27;7.20;;;16.20;99.90;;;;;;4143744;28;20029;-63
2023/03/21 07:47:28;;;;;;;10.13;6.90;;;16.10;99.90;;;;;;4144874;28;20538;-64
2023/03/21 07:49:30;;;;;;;20.75;7.75;;;16.20;99.90;;;;;;4144730;28;20038;-67
2023/03/21 07:51:31;;;;;;;17.45;8.77;;;16.10;99.90;;;;;;4144495;28;20034;-66
2023/03/21 07:53:32;;;;;;;13.93;6.28;;;16.10;99.90;;;;;;4145053;28;20022;-64
2023/03/21 07:55:36;;;;;;;12.80;6.20;;;16.20;99.90;;;;;;4144382;28;20429;-63
2023/03/21 07:57:37;;;;;;;14.95;6.57;;;16.40;99.90;;;;;;4144227;28;20039;-68
2023/03/21 07:59:39;;;;;;;14.77;5.72;;;16.90;99.90;;;;;;4144343;28;20038;-64
2023/03/21 08:01:40;;;;;;;9.70;5.72;;;17.40;99.30;;;;;;4145804;28;20050;-63
2023/03/21 08:03:42;;;;;;;13.93;5.82;;;17.70;98.20;;;;;;4144320;28;20052;-63
2023/03/21 08:05:43;;;;;;;12.20;6.22;;;17.90;97.80;;;;;;4145222;28;20034;-64
2023/03/21 08:07:45;;;;;;;9.55;5.13;;;18.30;97.10;;;;;;4144547;28;20112;-66
2023/03/21 08:09:46;;;;;;;9.82;5.60;;;18.60;96.50;;;;;;4144931;28;20042;-63
2023/03/21 08:11:47;;;;;;;11.43;6.57;;;18.60;95.60;;;;;;4144694;28;20092;-64
2023/03/21 08:13:50;;;;;;;9.65;6.38;;;18.60;95.20;;;;;;4144355;28;20038;-63
2023/03/21 08:15:51;;;;;;;11.40;5.88;;;18.40;94.80;;;;;;4145255;28;20492;-64
2023/03/21 08:17:52;;;;;;;12.38;6.63;;;18.50;95.00;;;;;;4144225;28;20045;-63
2023/03/21 08:19:53;;;;;;;11.40;6.53;;;18.50;94.30;;;;;;4145007;28;20501;-62
2023/03/21 08:21:54;;;;;;;11.30;7.22;;;18.50;94.00;;;;;;4144241;28;20041;-67
2023/03/21 08:23:55;;;;;;;9.48;5.80;;;18.60;93.80;;;;;;4145167;28;20033;-62
2023/03/21 08:25:57;;;;;;;11.40;6.65;;;18.40;93.50;;;;;;4143774;28;20029;-64
2023/03/21 08:27:58;;;;;;;12.30;7.70;;;18.30;93.40;;;;;;4145043;28;20034;-61
2023/03/21 08:30:00;;;;;;;12.07;6.47;;;18.20;93.40;;;;;;4144072;28;20429;-63
2023/03/21 08:32:01;;;;;;;12.52;6.63;;;18.20;93.50;;;;;;4143267;28;20050;-63
2023/03/21 08:34:02;;;;;;;12.43;6.38;;;18.30;93.40;;;;;;4144053;28;20018;-63
2023/03/21 08:36:05;;;;;;;11.82;7.00;;;18.30;93.20;;;;;;4143986;28;20026;-63
2023/03/21 08:38:06;;;;;;;10.05;6.57;;;18.10;93.20;;;;;;4144521;28;20705;-63
2023/03/21 08:40:12;;;;;;;9.27;6.20;;;18.20;93.40;;;;;;4143839;28;20038;-69
2023/03/21 08:42:13;;;;;;;8.55;6.22;;;18.40;93.20;;;;;;4145061;28;20033;-63
2023/03/21 08:44:15;;;;;;;8.10;6.20;;;18.40;92.70;;;;;;4143676;28;20524;-64
2023/03/21 08:46:17;;;;;;;10.43;6.28;;;18.20;92.60;;;;;;4144833;28;20076;-65
2023/03/21 08:48:18;;;;;;;14.10;5.95;;;18.10;92.60;;;;;;4143592;28;20034;-61
2023/03/21 08:50:22;;;;;;;8.95;6.88;;;18.00;92.90;;;;;;4144509;28;20407;-66
2023/03/21 08:52:23;;;;;;;9.65;6.35;;;18.00;92.90;;;;;;4142067;28;20034;-64
2023/03/21 08:54:24;;;;;;;9.18;6.43;;;17.90;93.00;;;;;;4144427;28;20086;-63
2023/03/21 08:56:25;;;;;;;13.95;6.85;;;18.10;92.90;;;;;;4143618;28;20060;-62
2023/03/21 08:58:27;;;;;;;10.05;6.30;;;18.20;92.70;;;;;;4145806;28;20107;-64
2023/03/21 09:00:28;;;;;;;8.10;5.90;;;17.90;92.40;;;;;;4147894;28;20448;-64
2023/03/21 09:02:30;;;;;;;10.43;5.82;;;18.00;92.60;;;;;;4146842;28;20068;-67
2023/03/21 09:04:31;;;;;;;8.63;6.03;;;17.80;92.40;;;;;;4147988;28;20046;-64
2023/03/21 09:06:33;;;;;;;10.82;6.18;;;17.60;92.50;;;;;;4146403;28;20050;-63
2023/03/21 09:08:34;;;;;;;10.23;7.80;;;17.40;92.60;;;;;;4147677;28;20529;-63
2023/03/21 09:10:35;;;;;;;14.65;8.57;;;17.20;92.70;;;;;;4146417;28;20437;-68
2023/03/21 09:12:37;;;;;;;15.10;7.47;;;16.90;92.90;;;;;;4148220;28;20092;-63
2023/03/21 09:14:38;;;;;;;18.05;7.72;;;16.80;93.10;;;;;;4146604;28;20421;-63
2023/03/21 09:16:40;;;;;;;10.85;7.22;;;16.50;93.40;;;;;;4147344;28;20057;-63
2023/03/21 09:18:45;;;;;;;14.57;7.68;;;16.40;93.60;;;;;;4147194;28;20088;-63
2023/03/21 09:20:49;;;;;;;10.43;6.45;;;16.30;93.80;;;;;;4147303;28;20171;-63
2023/03/21 09:22:53;;;;;;;19.25;7.70;;;16.20;93.90;;;;;;4147280;28;20014;-64
2023/03/21 09:24:54;;;;;;;11.98;7.53;;;16.20;94.00;;;;;;4147113;28;20061;-68
2023/03/21 09:26:56;;;;;;;11.55;7.55;;;16.00;94.20;;;;;;4147444;28;20099;-63
2023/03/21 09:28:57;;;;;;;9.93;6.95;;;15.80;94.50;;;;;;4146500;28;20080;-67
2023/03/21 09:31:02;;;;;;;12.50;7.60;;;15.70;94.80;;;;;;4147653;28;20096;-62
2023/03/21 09:33:18;;;;;;;21.50;8.70;;;15.70;95.30;;;;;;4146585;28;20068;-64
2023/03/21 09:35:19;;;;;;;15.98;8.38;;;15.60;96.10;;;;;;4147703;28;20084;-66
2023/03/21 09:37:21;;;;;;;10.05;7.88;;;15.50;96.30;;;;;;4146296;28;20033;-65
2023/03/21 09:39:23;;;;;;;15.00;8.13;;;15.40;96.40;;;;;;4147337;28;20398;-63
2023/03/21 09:41:58;;;;;;;13.32;7.72;;;15.30;96.70;;;;;;4146404;28;20368;-61
2023/03/21 09:44:14;;;;;;;14.93;8.68;;;15.40;97.00;;;;;;4147435;28;20497;-66
2023/03/21 09:46:33;;;;;;;13.77;8.38;;;15.60;97.00;;;;;;4146389;28;20088;-67
2023/03/21 09:48:45;;;;;;;10.90;7.63;;;15.70;96.90;;;;;;4147063;28;20030;-65
2023/03/21 09:50:46;;;;;;;15.02;8.15;;;15.80;96.70;;;;;;4146228;28;20187;-67
2023/03/21 09:52:56;;;;;;;13.38;8.35;;;15.90;96.70;;;;;;4147202;28;20034;-62
2023/03/21 09:54:58;;;;;;;13.60;7.72;;;15.90;96.60;;;;;;4146229;28;20034;-63
2023/03/21 09:57:08;;;;;;;13.15;8.48;;;15.90;96.70;;;;;;4147490;28;20108;-62
2023/03/21 09:59:27;;;;;;;13.25;8.40;;;15.80;96.80;;;;;;4146243;28;20037;-62
2023/03/21 10:01:33;;;;;;;14.30;8.10;;;15.60;97.20;;;;;;4147008;28;20096;-63
2023/03/21 10:03:35;;;;;;;17.90;7.75;;;15.40;97.50;;;;;;4145602;28;20080;-67
2023/03/21 10:05:39;;;;;;;17.20;8.43;;;15.40;97.60;;;;;;4146456;28;20058;-64
2023/03/21 10:07:51;;;;;;;12.30;7.32;;;15.30;97.70;;;;;;4146125;28;20080;-64
2023/03/21 10:09:53;;;;;;;10.75;7.25;;;15.50;97.60;;;;;;4146683;28;20434;-63
2023/03/21 10:11:54;;;;;;;17.27;8.07;;;15.80;97.30;;;;;;4145720;28;20437;-63
2023/03/21 10:14:09;;;;;;;15.65;8.60;;;16.00;97.10;;;;;;4146994;28;20038;-67
2023/03/21 10:16:29;;;;;;;13.07;8.15;;;16.10;97.00;;;;;;4145947;28;20096;-62
2023/03/21 10:18:31;;;;;;;14.73;8.82;;;16.00;96.90;;;;;;4147160;28;20025;-65
2023/03/21 10:20:37;;;;;;;13.48;8.50;;;16.00;96.80;;;;;;4145814;28;20037;-62
2023/03/21 10:22:39;;;;;;;14.00;7.90;;;16.30;96.80;;;;;;4146999;28;20026;-62
2023/03/21 10:24:40;;;;;;;14.27;8.18;;;16.20;96.70;;;;;;4146061;28;20064;-62
2023/03/21 10:26:42;;;;;;;12.13;7.88;;;16.10;96.80;;;;;;4145392;28;20041;-62
2023/03/21 10:28:45;;;;;;;16.85;9.00;;;16.10;96.80;;;;;;4145433;28;20084;-63
2023/03/21 10:31:03;;;;;;;15.55;8.75;;;16.10;97.00;;;;;;4146591;28;20045;-63
2023/03/21 10:33:08;;;;;;;12.93;7.28;;;16.10;96.40;;;;;;4145450;28;20052;-63
2023/03/21 10:35:13;;;;;;;11.07;7.63;;;16.10;96.60;;;;;;4146829;28;20556;-62
2023/03/21 10:37:15;;;;;;;13.15;8.32;;;16.10;96.50;;;;;;4145201;28;20084;-62
2023/03/21 10:39:19;;;;;;;11.10;7.72;;;16.00;96.50;;;;;;4146638;28;20108;-62
2023/03/21 10:41:21;;;;;;;18.13;8.18;;;16.00;96.40;;;;;;4145152;28;20552;-63
2023/03/21 10:43:25;;;;;;;13.63;8.00;;;16.10;96.50;;;;;;4146410;28;20100;-63